sensor_id;sensor_type;location;lat;lon;timestamp;temperature;humidity
22827;DHT22;11580;52.562;13.418;2022-07-29T00:00:53;18.90;28.00
22827;DHT22;11580;52.562;13.418;2022-07-29T00:03:20;18.90;27.90
22827;DHT22;11580;52.562;13.418;2022-07-29T00:05:47;18.90;28.00
22827;DHT22;11580;52.562;13.418;2022-07-29T00:08:14;18.90;28.60
22827;DHT22;11580;52.562;13.418;2022-07-29T00:10:42;18.80;28.00
22827;DHT22;11580;52.562;13.418;2022-07-29T00:13:09;18.80;28.10
22827;DHT22;11580;52.562;13.418;2022-07-29T00:15:38;18.80;28.20
22827;DHT22;11580;52.562;13.418;2022-07-29T00:18:05;18.80;28.50
22827;DHT22;11580;52.562;13.418;2022-07-29T00:20:32;18.70;28.30
22827;DHT22;11580;52.562;13.418;2022-07-29T00:22:59;18.70;28.40
22827;DHT22;11580;52.562;13.418;2022-07-29T00:25:27;18.70;28.50
22827;DHT22;11580;52.562;13.418;2022-07-29T00:27:54;18.70;28.50
22827;DHT22;11580;52.562;13.418;2022-07-29T00:30:22;18.60;28.50
22827;DHT22;11580;52.562;13.418;2022-07-29T00:32:50;18.60;28.60
22827;DHT22;11580;52.562;13.418;2022-07-29T00:35:18;18.60;29.00
22827;DHT22;11580;52.562;13.418;2022-07-29T00:38:02;18.60;28.80
22827;DHT22;11580;52.562;13.418;2022-07-29T00:40:30;18.60;28.70
22827;DHT22;11580;52.562;13.418;2022-07-29T00:42:57;18.60;29.40
22827;DHT22;11580;52.562;13.418;2022-07-29T00:45:24;18.50;28.90
22827;DHT22;11580;52.562;13.418;2022-07-29T00:47:53;18.50;29.00
22827;DHT22;11580;52.562;13.418;2022-07-29T00:50:20;18.50;29.30
22827;DHT22;11580;52.562;13.418;2022-07-29T00:52:48;18.50;29.20
22827;DHT22;11580;52.562;13.418;2022-07-29T00:55:16;18.50;29.30
22827;DHT22;11580;52.562;13.418;2022-07-29T00:57:45;18.50;29.30
22827;DHT22;11580;52.562;13.418;2022-07-29T01:00:15;18.40;29.40
22827;DHT22;11580;52.562;13.418;2022-07-29T01:02:45;18.40;29.70
22827;DHT22;11580;52.562;13.418;2022-07-29T01:05:17;18.40;29.40
22827;DHT22;11580;52.562;13.418;2022-07-29T01:07:49;18.40;30.00
22827;DHT22;11580;52.562;13.418;2022-07-29T01:10:20;18.30;29.80
22827;DHT22;11580;52.562;13.418;2022-07-29T01:12:49;18.30;29.70
22827;DHT22;11580;52.562;13.418;2022-07-29T01:15:20;18.30;29.80
22827;DHT22;11580;52.562;13.418;2022-07-29T01:17:53;18.30;29.80
22827;DHT22;11580;52.562;13.418;2022-07-29T01:20:42;18.20;30.20
22827;DHT22;11580;52.562;13.418;2022-07-29T01:23:51;18.20;31.60
22827;DHT22;11580;52.562;13.418;2022-07-29T01:26:37;18.20;30.90
22827;DHT22;11580;52.562;13.418;2022-07-29T01:29:18;18.20;31.00
22827;DHT22;11580;52.562;13.418;2022-07-29T01:31:55;18.20;31.00
22827;DHT22;11580;52.562;13.418;2022-07-29T01:34:31;18.10;30.70
22827;DHT22;11580;52.562;13.418;2022-07-29T01:37:18;18.10;30.90
22827;DHT22;11580;52.562;13.418;2022-07-29T01:39:49;18.10;31.00
22827;DHT22;11580;52.562;13.418;2022-07-29T01:42:26;18.10;30.40
22827;DHT22;11580;52.562;13.418;2022-07-29T01:45:05;18.00;31.20
22827;DHT22;11580;52.562;13.418;2022-07-29T01:47:40;18.00;31.10
22827;DHT22;11580;52.562;13.418;2022-07-29T01:50:15;18.00;30.80
22827;DHT22;11580;52.562;13.418;2022-07-29T01:52:47;18.00;31.10
22827;DHT22;11580;52.562;13.418;2022-07-29T01:55:23;17.90;31.00
22827;DHT22;11580;52.562;13.418;2022-07-29T01:57:56;17.90;30.80
22827;DHT22;11580;52.562;13.418;2022-07-29T02:00:27;17.90;31.00
22827;DHT22;11580;52.562;13.418;2022-07-29T02:02:59;17.90;31.20
22827;DHT22;11580;52.562;13.418;2022-07-29T02:05:31;17.90;31.00
22827;DHT22;11580;52.562;13.418;2022-07-29T02:08:01;17.90;31.00
22827;DHT22;11580;52.562;13.418;2022-07-29T02:10:32;17.90;31.20
22827;DHT22;11580;52.562;13.418;2022-07-29T02:13:02;17.80;31.20
22827;DHT22;11580;52.562;13.418;2022-07-29T02:15:33;17.80;31.20
22827;DHT22;11580;52.562;13.418;2022-07-29T02:18:07;17.80;32.40
22827;DHT22;11580;52.562;13.418;2022-07-29T02:20:37;17.80;31.80
22827;DHT22;11580;52.562;13.418;2022-07-29T02:23:07;17.70;31.40
22827;DHT22;11580;52.562;13.418;2022-07-29T02:25:39;17.70;31.30
22827;DHT22;11580;52.562;13.418;2022-07-29T02:28:08;17.70;31.30
22827;DHT22;11580;52.562;13.418;2022-07-29T02:30:40;17.70;31.30
22827;DHT22;11580;52.562;13.418;2022-07-29T02:33:12;17.70;32.30
22827;DHT22;11580;52.562;13.418;2022-07-29T02:35:43;17.70;32.00
22827;DHT22;11580;52.562;13.418;2022-07-29T02:38:14;17.60;31.80
22827;DHT22;11580;52.562;13.418;2022-07-29T02:41:03;17.60;31.60
22827;DHT22;11580;52.562;13.418;2022-07-29T02:43:34;17.60;31.80
22827;DHT22;11580;52.562;13.418;2022-07-29T02:46:06;17.60;32.10
22827;DHT22;11580;52.562;13.418;2022-07-29T02:48:41;17.60;32.30
22827;DHT22;11580;52.562;13.418;2022-07-29T02:51:19;17.60;32.40
22827;DHT22;11580;52.562;13.418;2022-07-29T02:53:56;17.60;32.80
22827;DHT22;11580;52.562;13.418;2022-07-29T02:56:32;17.60;32.10
22827;DHT22;11580;52.562;13.418;2022-07-29T02:59:05;17.60;32.60
22827;DHT22;11580;52.562;13.418;2022-07-29T03:01:39;17.70;32.30
22827;DHT22;11580;52.562;13.418;2022-07-29T03:04:11;17.70;32.70
22827;DHT22;11580;52.562;13.418;2022-07-29T03:06:41;17.70;32.40
22827;DHT22;11580;52.562;13.418;2022-07-29T03:09:11;17.70;32.10
22827;DHT22;11580;52.562;13.418;2022-07-29T03:11:41;17.70;32.20
22827;DHT22;11580;52.562;13.418;2022-07-29T03:14:09;17.80;32.40
22827;DHT22;11580;52.562;13.418;2022-07-29T03:16:39;17.80;32.30
22827;DHT22;11580;52.562;13.418;2022-07-29T03:19:07;17.90;32.50
22827;DHT22;11580;52.562;13.418;2022-07-29T03:21:34;17.90;32.30
22827;DHT22;11580;52.562;13.418;2022-07-29T03:24:02;17.90;32.20
22827;DHT22;11580;52.562;13.418;2022-07-29T03:26:29;17.90;32.20
22827;DHT22;11580;52.562;13.418;2022-07-29T03:28:57;18.00;32.20
22827;DHT22;11580;52.562;13.418;2022-07-29T03:31:24;18.00;32.20
22827;DHT22;11580;52.562;13.418;2022-07-29T03:33:52;18.10;32.20
22827;DHT22;11580;52.562;13.418;2022-07-29T03:36:20;18.10;32.50
22827;DHT22;11580;52.562;13.418;2022-07-29T03:38:47;18.10;32.30
22827;DHT22;11580;52.562;13.418;2022-07-29T03:41:16;18.10;32.30
22827;DHT22;11580;52.562;13.418;2022-07-29T03:43:47;18.20;32.50
22827;DHT22;11580;52.562;13.418;2022-07-29T03:46:17;18.20;32.50
22827;DHT22;11580;52.562;13.418;2022-07-29T03:48:52;18.30;32.20
22827;DHT22;11580;52.562;13.418;2022-07-29T03:51:25;18.20;32.30
22827;DHT22;11580;52.562;13.418;2022-07-29T03:53:53;18.30;32.40
22827;DHT22;11580;52.562;13.418;2022-07-29T03:56:21;18.30;32.40
22827;DHT22;11580;52.562;13.418;2022-07-29T03:58:50;18.40;32.40
22827;DHT22;11580;52.562;13.418;2022-07-29T04:01:19;18.40;32.20
22827;DHT22;11580;52.562;13.418;2022-07-29T04:03:47;18.50;32.20
22827;DHT22;11580;52.562;13.418;2022-07-29T04:06:16;18.50;32.00
22827;DHT22;11580;52.562;13.418;2022-07-29T04:08:43;18.50;32.20
22827;DHT22;11580;52.562;13.418;2022-07-29T04:11:11;18.50;32.10
22827;DHT22;11580;52.562;13.418;2022-07-29T04:13:39;18.50;32.10
22827;DHT22;11580;52.562;13.418;2022-07-29T04:16:06;18.50;32.10
22827;DHT22;11580;52.562;13.418;2022-07-29T04:18:33;18.50;32.10
22827;DHT22;11580;52.562;13.418;2022-07-29T04:21:01;18.50;32.20
22827;DHT22;11580;52.562;13.418;2022-07-29T04:23:30;18.50;32.20
22827;DHT22;11580;52.562;13.418;2022-07-29T04:25:59;18.50;33.10
22827;DHT22;11580;52.562;13.418;2022-07-29T04:28:27;18.60;32.40
22827;DHT22;11580;52.562;13.418;2022-07-29T04:30:54;18.60;32.30
22827;DHT22;11580;52.562;13.418;2022-07-29T04:33:21;18.70;32.50
22827;DHT22;11580;52.562;13.418;2022-07-29T04:35:48;18.70;32.80
22827;DHT22;11580;52.562;13.418;2022-07-29T04:38:15;18.90;33.30
22827;DHT22;11580;52.562;13.418;2022-07-29T04:40:44;19.10;33.20
22827;DHT22;11580;52.562;13.418;2022-07-29T04:43:11;19.30;33.00
22827;DHT22;11580;52.562;13.418;2022-07-29T04:45:39;19.50;32.60
22827;DHT22;11580;52.562;13.418;2022-07-29T04:48:06;19.80;32.20
22827;DHT22;11580;52.562;13.418;2022-07-29T04:50:33;19.90;31.80
22827;DHT22;11580;52.562;13.418;2022-07-29T04:53:01;20.00;31.40
22827;DHT22;11580;52.562;13.418;2022-07-29T04:55:28;20.10;31.20
22827;DHT22;11580;52.562;13.418;2022-07-29T04:57:56;20.20;31.00
22827;DHT22;11580;52.562;13.418;2022-07-29T05:00:24;20.20;30.80
22827;DHT22;11580;52.562;13.418;2022-07-29T05:02:51;20.30;30.60
22827;DHT22;11580;52.562;13.418;2022-07-29T05:05:18;20.30;30.50
22827;DHT22;11580;52.562;13.418;2022-07-29T05:07:46;20.30;30.50
22827;DHT22;11580;52.562;13.418;2022-07-29T05:10:13;20.30;30.50
22827;DHT22;11580;52.562;13.418;2022-07-29T05:12:40;20.30;30.50
22827;DHT22;11580;52.562;13.418;2022-07-29T05:15:10;20.30;30.50
22827;DHT22;11580;52.562;13.418;2022-07-29T05:17:37;20.30;30.70
22827;DHT22;11580;52.562;13.418;2022-07-29T05:20:05;20.40;30.70
22827;DHT22;11580;52.562;13.418;2022-07-29T05:22:33;20.40;30.80
22827;DHT22;11580;52.562;13.418;2022-07-29T05:25:00;20.50;30.90
22827;DHT22;11580;52.562;13.418;2022-07-29T05:27:28;20.60;31.00
22827;DHT22;11580;52.562;13.418;2022-07-29T05:29:55;20.70;30.90
22827;DHT22;11580;52.562;13.418;2022-07-29T05:32:24;20.90;31.00
22827;DHT22;11580;52.562;13.418;2022-07-29T05:34:51;21.10;30.70
22827;DHT22;11580;52.562;13.418;2022-07-29T05:37:19;21.20;30.50
22827;DHT22;11580;52.562;13.418;2022-07-29T05:39:46;21.40;30.20
22827;DHT22;11580;52.562;13.418;2022-07-29T05:42:14;21.50;30.00
22827;DHT22;11580;52.562;13.418;2022-07-29T05:44:41;21.60;29.80
22827;DHT22;11580;52.562;13.418;2022-07-29T05:47:08;21.70;29.60
22827;DHT22;11580;52.562;13.418;2022-07-29T05:49:37;21.70;29.40
22827;DHT22;11580;52.562;13.418;2022-07-29T05:52:04;21.70;29.30
22827;DHT22;11580;52.562;13.418;2022-07-29T05:54:32;21.80;29.30
22827;DHT22;11580;52.562;13.418;2022-07-29T05:56:59;21.80;29.30
22827;DHT22;11580;52.562;13.418;2022-07-29T05:59:26;21.80;29.20
22827;DHT22;11580;52.562;13.418;2022-07-29T06:01:54;21.80;29.20
22827;DHT22;11580;52.562;13.418;2022-07-29T06:04:22;21.70;29.10
22827;DHT22;11580;52.562;13.418;2022-07-29T06:06:51;21.70;29.20
22827;DHT22;11580;52.562;13.418;2022-07-29T06:09:18;21.80;29.40
22827;DHT22;11580;52.562;13.418;2022-07-29T06:11:46;21.80;29.40
22827;DHT22;11580;52.562;13.418;2022-07-29T06:14:13;21.90;29.50
22827;DHT22;11580;52.562;13.418;2022-07-29T06:16:41;22.00;29.60
22827;DHT22;11580;52.562;13.418;2022-07-29T06:19:08;22.10;29.60
22827;DHT22;11580;52.562;13.418;2022-07-29T06:21:36;22.20;29.50
22827;DHT22;11580;52.562;13.418;2022-07-29T06:24:05;22.30;29.40
22827;DHT22;11580;52.562;13.418;2022-07-29T06:26:33;22.50;29.10
22827;DHT22;11580;52.562;13.418;2022-07-29T06:29:00;22.60;29.10
22827;DHT22;11580;52.562;13.418;2022-07-29T06:31:27;22.70;29.00
22827;DHT22;11580;52.562;13.418;2022-07-29T06:33:54;22.90;28.90
22827;DHT22;11580;52.562;13.418;2022-07-29T06:36:22;23.00;28.70
22827;DHT22;11580;52.562;13.418;2022-07-29T06:38:49;23.20;28.70
22827;DHT22;11580;52.562;13.418;2022-07-29T06:41:18;23.30;28.40
22827;DHT22;11580;52.562;13.418;2022-07-29T06:43:45;23.50;28.20
22827;DHT22;11580;52.562;13.418;2022-07-29T06:46:14;23.60;28.10
22827;DHT22;11580;52.562;13.418;2022-07-29T06:48:43;23.70;27.80
22827;DHT22;11580;52.562;13.418;2022-07-29T06:51:11;23.80;27.90
22827;DHT22;11580;52.562;13.418;2022-07-29T06:53:40;23.80;27.90
22827;DHT22;11580;52.562;13.418;2022-07-29T06:56:07;23.90;28.00
22827;DHT22;11580;52.562;13.418;2022-07-29T06:58:36;24.00;28.00
22827;DHT22;11580;52.562;13.418;2022-07-29T07:01:05;24.00;27.70
22827;DHT22;11580;52.562;13.418;2022-07-29T07:03:32;24.10;27.60
22827;DHT22;11580;52.562;13.418;2022-07-29T07:06:00;24.20;27.70
22827;DHT22;11580;52.562;13.418;2022-07-29T07:08:27;24.30;27.80
22827;DHT22;11580;52.562;13.418;2022-07-29T07:10:55;24.40;27.50
22827;DHT22;11580;52.562;13.418;2022-07-29T07:13:22;24.50;27.40
22827;DHT22;11580;52.562;13.418;2022-07-29T07:15:51;24.60;27.20
22827;DHT22;11580;52.562;13.418;2022-07-29T07:18:19;24.70;26.90
22827;DHT22;11580;52.562;13.418;2022-07-29T07:20:46;24.90;27.00
22827;DHT22;11580;52.562;13.418;2022-07-29T07:23:14;25.00;26.90
22827;DHT22;11580;52.562;13.418;2022-07-29T07:25:41;25.10;26.80
22827;DHT22;11580;52.562;13.418;2022-07-29T07:28:08;25.10;26.60
22827;DHT22;11580;52.562;13.418;2022-07-29T07:30:36;25.40;26.50
22827;DHT22;11580;52.562;13.418;2022-07-29T07:33:05;25.50;26.20
22827;DHT22;11580;52.562;13.418;2022-07-29T07:35:32;25.60;25.80
22827;DHT22;11580;52.562;13.418;2022-07-29T07:38:00;25.60;25.80
22827;DHT22;11580;52.562;13.418;2022-07-29T07:40:27;25.70;25.60
22827;DHT22;11580;52.562;13.418;2022-07-29T07:42:54;25.70;26.30
22827;DHT22;11580;52.562;13.418;2022-07-29T07:45:22;25.70;25.70
22827;DHT22;11580;52.562;13.418;2022-07-29T07:47:49;25.70;25.60
22827;DHT22;11580;52.562;13.418;2022-07-29T07:50:18;25.80;25.50
22827;DHT22;11580;52.562;13.418;2022-07-29T07:52:50;25.80;25.40
22827;DHT22;11580;52.562;13.418;2022-07-29T07:55:18;25.80;25.20
22827;DHT22;11580;52.562;13.418;2022-07-29T07:57:46;25.90;25.40
22827;DHT22;11580;52.562;13.418;2022-07-29T08:00:15;25.90;25.30
22827;DHT22;11580;52.562;13.418;2022-07-29T08:02:43;25.90;25.30
22827;DHT22;11580;52.562;13.418;2022-07-29T08:05:12;26.00;24.80
22827;DHT22;11580;52.562;13.418;2022-07-29T08:07:44;26.00;24.60
22827;DHT22;11580;52.562;13.418;2022-07-29T08:10:13;26.00;24.00
22827;DHT22;11580;52.562;13.418;2022-07-29T08:12:40;26.10;24.30
22827;DHT22;11580;52.562;13.418;2022-07-29T08:15:08;26.10;24.20
22827;DHT22;11580;52.562;13.418;2022-07-29T08:17:36;26.20;24.10
22827;DHT22;11580;52.562;13.418;2022-07-29T08:20:04;26.20;24.10
22827;DHT22;11580;52.562;13.418;2022-07-29T08:22:32;26.30;24.10
22827;DHT22;11580;52.562;13.418;2022-07-29T08:25:00;26.40;23.80
22827;DHT22;11580;52.562;13.418;2022-07-29T08:27:27;26.50;23.60
22827;DHT22;11580;52.562;13.418;2022-07-29T08:29:56;26.60;23.60
22827;DHT22;11580;52.562;13.418;2022-07-29T08:32:23;26.70;23.50
22827;DHT22;11580;52.562;13.418;2022-07-29T08:34:51;26.80;23.30
22827;DHT22;11580;52.562;13.418;2022-07-29T08:37:18;26.80;23.30
22827;DHT22;11580;52.562;13.418;2022-07-29T08:39:45;26.90;23.10
22827;DHT22;11580;52.562;13.418;2022-07-29T08:42:15;27.00;22.90
22827;DHT22;11580;52.562;13.418;2022-07-29T08:44:42;27.00;22.30
22827;DHT22;11580;52.562;13.418;2022-07-29T08:47:10;27.10;22.40
22827;DHT22;11580;52.562;13.418;2022-07-29T08:49:40;27.20;22.10
22827;DHT22;11580;52.562;13.418;2022-07-29T08:52:10;27.20;22.10
22827;DHT22;11580;52.562;13.418;2022-07-29T08:54:39;27.30;21.70
22827;DHT22;11580;52.562;13.418;2022-07-29T08:57:07;27.30;21.80
22827;DHT22;11580;52.562;13.418;2022-07-29T08:59:37;27.40;21.60
22827;DHT22;11580;52.562;13.418;2022-07-29T09:02:15;27.50;21.10
22827;DHT22;11580;52.562;13.418;2022-07-29T09:04:46;27.50;20.70
22827;DHT22;11580;52.562;13.418;2022-07-29T09:07:15;27.60;21.20
22827;DHT22;11580;52.562;13.418;2022-07-29T09:09:44;27.60;21.00
22827;DHT22;11580;52.562;13.418;2022-07-29T09:12:12;27.60;20.90
22827;DHT22;11580;52.562;13.418;2022-07-29T09:14:41;27.60;20.90
22827;DHT22;11580;52.562;13.418;2022-07-29T09:17:08;27.60;20.70
22827;DHT22;11580;52.562;13.418;2022-07-29T09:19:37;27.70;20.70
22827;DHT22;11580;52.562;13.418;2022-07-29T09:22:05;27.70;20.70
22827;DHT22;11580;52.562;13.418;2022-07-29T09:24:43;27.70;20.80
22827;DHT22;11580;52.562;13.418;2022-07-29T09:27:23;27.80;20.10
22827;DHT22;11580;52.562;13.418;2022-07-29T09:30:01;27.90;19.90
22827;DHT22;11580;52.562;13.418;2022-07-29T09:32:30;28.00;20.40
22827;DHT22;11580;52.562;13.418;2022-07-29T09:35:15;28.10;20.40
22827;DHT22;11580;52.562;13.418;2022-07-29T09:37:46;28.20;20.10
22827;DHT22;11580;52.562;13.418;2022-07-29T09:40:15;28.30;20.10
22827;DHT22;11580;52.562;13.418;2022-07-29T09:42:44;28.40;20.20
22827;DHT22;11580;52.562;13.418;2022-07-29T09:45:26;28.50;20.30
22827;DHT22;11580;52.562;13.418;2022-07-29T09:47:55;28.60;19.60
22827;DHT22;11580;52.562;13.418;2022-07-29T09:50:35;28.70;19.90
22827;DHT22;11580;52.562;13.418;2022-07-29T09:53:04;28.70;18.90
22827;DHT22;11580;52.562;13.418;2022-07-29T09:55:31;28.90;19.30
22827;DHT22;11580;52.562;13.418;2022-07-29T09:58:16;29.00;19.10
22827;DHT22;11580;52.562;13.418;2022-07-29T10:00:46;29.20;18.40
22827;DHT22;11580;52.562;13.418;2022-07-29T10:03:15;29.30;18.80
22827;DHT22;11580;52.562;13.418;2022-07-29T10:05:45;29.50;18.90
22827;DHT22;11580;52.562;13.418;2022-07-29T10:08:13;29.60;18.50
22827;DHT22;11580;52.562;13.418;2022-07-29T10:10:42;29.80;18.40
22827;DHT22;11580;52.562;13.418;2022-07-29T10:13:12;29.90;18.20
22827;DHT22;11580;52.562;13.418;2022-07-29T10:15:42;30.00;18.00
22827;DHT22;11580;52.562;13.418;2022-07-29T10:18:14;30.20;18.00
22827;DHT22;11580;52.562;13.418;2022-07-29T10:20:42;30.30;17.30
22827;DHT22;11580;52.562;13.418;2022-07-29T10:23:10;30.40;17.60
22827;DHT22;11580;52.562;13.418;2022-07-29T10:25:38;30.50;17.40
22827;DHT22;11580;52.562;13.418;2022-07-29T10:28:06;30.60;16.90
22827;DHT22;11580;52.562;13.418;2022-07-29T10:30:33;30.60;16.80
22827;DHT22;11580;52.562;13.418;2022-07-29T10:33:30;30.70;16.60
22827;DHT22;11580;52.562;13.418;2022-07-29T10:36:21;30.70;16.70
22827;DHT22;11580;52.562;13.418;2022-07-29T10:39:05;30.70;16.50
22827;DHT22;11580;52.562;13.418;2022-07-29T10:41:55;30.70;16.40
22827;DHT22;11580;52.562;13.418;2022-07-29T10:44:29;30.60;15.50
22827;DHT22;11580;52.562;13.418;2022-07-29T10:46:56;30.60;15.80
22827;DHT22;11580;52.562;13.418;2022-07-29T10:49:26;30.50;15.80
22827;DHT22;11580;52.562;13.418;2022-07-29T10:51:58;30.50;15.60
22827;DHT22;11580;52.562;13.418;2022-07-29T10:54:43;30.40;15.70
22827;DHT22;11580;52.562;13.418;2022-07-29T10:57:24;30.40;16.00
22827;DHT22;11580;52.562;13.418;2022-07-29T11:00:31;30.40;15.60
22827;DHT22;11580;52.562;13.418;2022-07-29T11:02:59;30.50;16.10
22827;DHT22;11580;52.562;13.418;2022-07-29T11:05:28;30.50;16.10
22827;DHT22;11580;52.562;13.418;2022-07-29T11:08:16;30.60;16.10
22827;DHT22;11580;52.562;13.418;2022-07-29T11:10:47;30.80;16.20
22827;DHT22;11580;52.562;13.418;2022-07-29T11:13:46;31.00;16.20
22827;DHT22;11580;52.562;13.418;2022-07-29T11:16:17;31.20;16.00
22827;DHT22;11580;52.562;13.418;2022-07-29T11:19:20;31.40;16.10
22827;DHT22;11580;52.562;13.418;2022-07-29T11:21:49;31.50;16.10
22827;DHT22;11580;52.562;13.418;2022-07-29T11:24:20;31.70;15.70
22827;DHT22;11580;52.562;13.418;2022-07-29T11:27:08;31.80;15.70
22827;DHT22;11580;52.562;13.418;2022-07-29T11:29:40;31.90;15.50
22827;DHT22;11580;52.562;13.418;2022-07-29T11:32:17;31.90;15.20
22827;DHT22;11580;52.562;13.418;2022-07-29T11:34:47;31.90;15.20
22827;DHT22;11580;52.562;13.418;2022-07-29T11:37:23;31.90;15.20
22827;DHT22;11580;52.562;13.418;2022-07-29T11:40:16;31.90;15.50
22827;DHT22;11580;52.562;13.418;2022-07-29T11:42:45;31.90;15.20
22827;DHT22;11580;52.562;13.418;2022-07-29T11:45:18;31.90;15.20
22827;DHT22;11580;52.562;13.418;2022-07-29T11:47:50;31.90;15.00
22827;DHT22;11580;52.562;13.418;2022-07-29T11:50:29;31.90;15.20
22827;DHT22;11580;52.562;13.418;2022-07-29T11:53:00;31.80;15.20
22827;DHT22;11580;52.562;13.418;2022-07-29T11:55:28;31.80;15.40
22827;DHT22;11580;52.562;13.418;2022-07-29T11:57:58;31.70;15.60
22827;DHT22;11580;52.562;13.418;2022-07-29T12:00:29;31.70;15.50
22827;DHT22;11580;52.562;13.418;2022-07-29T12:02:59;31.70;15.50
22827;DHT22;11580;52.562;13.418;2022-07-29T12:05:37;31.60;15.60
22827;DHT22;11580;52.562;13.418;2022-07-29T12:08:13;31.60;15.50
22827;DHT22;11580;52.562;13.418;2022-07-29T12:10:42;31.60;15.50
22827;DHT22;11580;52.562;13.418;2022-07-29T12:13:11;31.50;15.80
22827;DHT22;11580;52.562;13.418;2022-07-29T12:15:40;31.50;16.00
22827;DHT22;11580;52.562;13.418;2022-07-29T12:18:18;31.40;16.00
22827;DHT22;11580;52.562;13.418;2022-07-29T12:20:47;31.40;16.20
22827;DHT22;11580;52.562;13.418;2022-07-29T12:23:16;31.30;16.10
22827;DHT22;11580;52.562;13.418;2022-07-29T12:25:44;31.20;16.00
22827;DHT22;11580;52.562;13.418;2022-07-29T12:28:13;31.20;16.30
22827;DHT22;11580;52.562;13.418;2022-07-29T12:30:45;31.10;16.40
22827;DHT22;11580;52.562;13.418;2022-07-29T12:33:19;31.00;16.60
22827;DHT22;11580;52.562;13.418;2022-07-29T12:35:49;31.00;16.80
22827;DHT22;11580;52.562;13.418;2022-07-29T12:38:20;31.00;16.90
22827;DHT22;11580;52.562;13.418;2022-07-29T12:40:49;30.90;16.90
22827;DHT22;11580;52.562;13.418;2022-07-29T12:43:19;30.90;17.50
22827;DHT22;11580;52.562;13.418;2022-07-29T12:45:49;30.90;17.00
22827;DHT22;11580;52.562;13.418;2022-07-29T12:48:18;30.90;17.10
22827;DHT22;11580;52.562;13.418;2022-07-29T12:51:01;30.80;17.10
22827;DHT22;11580;52.562;13.418;2022-07-29T12:53:31;30.80;17.10
22827;DHT22;11580;52.562;13.418;2022-07-29T12:55:59;30.80;17.20
22827;DHT22;11580;52.562;13.418;2022-07-29T12:58:32;30.80;17.30
22827;DHT22;11580;52.562;13.418;2022-07-29T13:01:04;30.80;17.10
22827;DHT22;11580;52.562;13.418;2022-07-29T13:03:47;30.80;17.20
22827;DHT22;11580;52.562;13.418;2022-07-29T13:06:34;30.80;17.30
22827;DHT22;11580;52.562;13.418;2022-07-29T13:09:09;30.80;17.30
22827;DHT22;11580;52.562;13.418;2022-07-29T13:11:40;30.90;17.30
22827;DHT22;11580;52.562;13.418;2022-07-29T13:14:11;30.90;17.30
22827;DHT22;11580;52.562;13.418;2022-07-29T13:17:00;31.00;17.30
22827;DHT22;11580;52.562;13.418;2022-07-29T13:19:34;31.10;17.40
22827;DHT22;11580;52.562;13.418;2022-07-29T13:22:03;31.10;17.30
22827;DHT22;11580;52.562;13.418;2022-07-29T13:24:32;31.20;17.40
22827;DHT22;11580;52.562;13.418;2022-07-29T13:27:00;31.20;17.20
22827;DHT22;11580;52.562;13.418;2022-07-29T13:29:27;31.30;17.20
22827;DHT22;11580;52.562;13.418;2022-07-29T13:31:54;31.30;17.10
22827;DHT22;11580;52.562;13.418;2022-07-29T13:34:22;31.30;17.30
22827;DHT22;11580;52.562;13.418;2022-07-29T13:36:50;31.30;17.20
22827;DHT22;11580;52.562;13.418;2022-07-29T13:39:17;31.30;17.20
22827;DHT22;11580;52.562;13.418;2022-07-29T13:41:46;31.30;17.30
22827;DHT22;11580;52.562;13.418;2022-07-29T13:44:13;31.40;17.20
22827;DHT22;11580;52.562;13.418;2022-07-29T13:46:40;31.50;17.10
22827;DHT22;11580;52.562;13.418;2022-07-29T13:49:07;31.50;17.00
22827;DHT22;11580;52.562;13.418;2022-07-29T13:51:36;31.60;17.00
22827;DHT22;11580;52.562;13.418;2022-07-29T13:54:03;31.70;16.90
22827;DHT22;11580;52.562;13.418;2022-07-29T13:56:31;31.80;16.90
22827;DHT22;11580;52.562;13.418;2022-07-29T13:58:59;31.80;16.80
22827;DHT22;11580;52.562;13.418;2022-07-29T14:01:27;31.90;16.80
22827;DHT22;11580;52.562;13.418;2022-07-29T14:03:55;31.90;16.80
22827;DHT22;11580;52.562;13.418;2022-07-29T14:06:23;32.00;16.80
22827;DHT22;11580;52.562;13.418;2022-07-29T14:08:50;32.10;16.80
22827;DHT22;11580;52.562;13.418;2022-07-29T14:11:17;32.20;16.60
22827;DHT22;11580;52.562;13.418;2022-07-29T14:13:44;32.30;16.60
22827;DHT22;11580;52.562;13.418;2022-07-29T14:16:14;32.50;16.50
22827;DHT22;11580;52.562;13.418;2022-07-29T14:18:41;32.70;16.30
22827;DHT22;11580;52.562;13.418;2022-07-29T14:21:08;32.80;16.90
22827;DHT22;11580;52.562;13.418;2022-07-29T14:23:36;32.90;16.10
22827;DHT22;11580;52.562;13.418;2022-07-29T14:26:03;33.00;16.00
22827;DHT22;11580;52.562;13.418;2022-07-29T14:28:31;33.10;16.00
22827;DHT22;11580;52.562;13.418;2022-07-29T14:30:58;33.10;15.90
22827;DHT22;11580;52.562;13.418;2022-07-29T14:33:26;33.20;15.90
22827;DHT22;11580;52.562;13.418;2022-07-29T14:35:54;33.20;15.80
22827;DHT22;11580;52.562;13.418;2022-07-29T14:38:21;33.20;15.70
22827;DHT22;11580;52.562;13.418;2022-07-29T14:40:48;33.20;15.60
22827;DHT22;11580;52.562;13.418;2022-07-29T14:43:16;33.20;15.50
22827;DHT22;11580;52.562;13.418;2022-07-29T14:45:43;33.20;15.50
22827;DHT22;11580;52.562;13.418;2022-07-29T14:48:10;33.10;15.40
22827;DHT22;11580;52.562;13.418;2022-07-29T14:50:39;32.90;15.40
22827;DHT22;11580;52.562;13.418;2022-07-29T14:53:06;32.80;15.30
22827;DHT22;11580;52.562;13.418;2022-07-29T14:55:33;32.70;15.60
22827;DHT22;11580;52.562;13.418;2022-07-29T14:58:01;32.50;15.50
22827;DHT22;11580;52.562;13.418;2022-07-29T15:00:28;32.40;15.70
22827;DHT22;11580;52.562;13.418;2022-07-29T15:02:57;32.30;15.80
22827;DHT22;11580;52.562;13.418;2022-07-29T15:05:25;32.20;15.70
22827;DHT22;11580;52.562;13.418;2022-07-29T15:07:54;32.20;15.80
22827;DHT22;11580;52.562;13.418;2022-07-29T15:10:21;32.20;15.90
22827;DHT22;11580;52.562;13.418;2022-07-29T15:12:48;32.20;16.00
22827;DHT22;11580;52.562;13.418;2022-07-29T15:15:15;32.20;16.10
22827;DHT22;11580;52.562;13.418;2022-07-29T15:17:43;32.30;15.90
22827;DHT22;11580;52.562;13.418;2022-07-29T15:20:11;32.30;15.60
22827;DHT22;11580;52.562;13.418;2022-07-29T15:22:39;32.30;15.40
22827;DHT22;11580;52.562;13.418;2022-07-29T15:25:09;32.30;15.40
22827;DHT22;11580;52.562;13.418;2022-07-29T15:27:36;32.20;15.40
22827;DHT22;11580;52.562;13.418;2022-07-29T15:30:04;32.20;15.40
22827;DHT22;11580;52.562;13.418;2022-07-29T15:32:33;32.20;15.30
22827;DHT22;11580;52.562;13.418;2022-07-29T15:35:00;32.10;15.30